createdAt,value
2022-12-17T00:03:37.229Z,100.00
2022-12-17T00:08:59.993Z,100.00
2022-12-17T00:14:20.996Z,100.00
2022-12-17T00:19:42.199Z,100.00
2022-12-17T00:25:04.473Z,100.00
2022-12-17T00:30:26.648Z,100.00
2022-12-17T00:35:47.381Z,100.00
2022-12-17T00:41:24.152Z,100.00
2022-12-17T00:46:46.664Z,100.00
2022-12-17T00:52:07.556Z,100.00
2022-12-17T00:57:29.635Z,100.00
2022-12-17T01:02:50.678Z,100.00
2022-12-17T01:08:12.045Z,100.00
2022-12-17T01:13:35.149Z,100.00
2022-12-17T01:18:56.371Z,100.00
2022-12-17T01:24:22.676Z,100.00
2022-12-17T01:29:41.379Z,100.00
2022-12-17T01:35:02.383Z,100.00
2022-12-17T01:40:25.852Z,100.00
2022-12-17T01:45:55.541Z,100.00
2022-12-17T01:51:17.589Z,100.00
2022-12-17T01:56:38.515Z,100.00
2022-12-17T02:02:01.219Z,100.00
2022-12-17T02:07:35.775Z,100.00
2022-12-17T02:13:03.400Z,100.00
2022-12-17T02:18:32.998Z,100.00
2022-12-17T02:24:04.456Z,100.00
2022-12-17T02:29:27.415Z,100.00
2022-12-17T02:34:48.388Z,100.00
2022-12-17T02:40:21.186Z,100.00
2022-12-17T02:45:43.843Z,100.00
2022-12-17T02:51:05.758Z,100.00
2022-12-17T02:56:27.368Z,100.00
2022-12-17T03:01:49.793Z,100.00
2022-12-17T03:07:10.689Z,100.00
2022-12-17T03:12:46.266Z,100.00
2022-12-17T03:18:08.585Z,100.00
2022-12-17T03:23:30.724Z,100.00
2022-12-17T03:28:51.837Z,100.00
2022-12-17T03:34:14.397Z,100.00
2022-12-17T03:39:35.431Z,100.00
2022-12-17T03:44:56.561Z,100.00
2022-12-17T03:50:18.968Z,100.00
2022-12-17T03:55:39.967Z,100.00
2022-12-17T04:01:00.917Z,100.00
2022-12-17T04:06:23.279Z,100.00
2022-12-17T04:12:00.142Z,100.00
2022-12-17T04:17:20.755Z,100.00
2022-12-17T04:22:43.083Z,100.00
2022-12-17T04:28:04.187Z,100.00
2022-12-17T04:33:25.151Z,100.00
2022-12-17T04:38:47.620Z,100.00
2022-12-17T04:44:08.922Z,100.00
2022-12-17T04:49:35.205Z,100.00
2022-12-17T04:54:57.698Z,100.00
2022-12-17T05:00:18.047Z,100.00
2022-12-17T05:05:39.210Z,100.00
2022-12-17T05:11:02.225Z,100.00
2022-12-17T05:16:23.809Z,100.00
2022-12-17T05:21:44.943Z,100.00
2022-12-17T05:27:07.367Z,100.00
2022-12-17T05:32:28.742Z,100.00
2022-12-17T05:37:52.897Z,100.00
2022-12-17T05:43:17.105Z,100.00
2022-12-17T05:48:38.623Z,100.00
2022-12-17T05:53:59.831Z,100.00
2022-12-17T05:59:22.015Z,100.00
2022-12-17T06:04:43.858Z,100.00
2022-12-17T06:10:04.739Z,100.00
2022-12-17T06:15:27.891Z,100.00
2022-12-17T06:20:48.800Z,100.00
2022-12-17T06:26:10.995Z,100.00
2022-12-17T06:31:33.504Z,100.00
2022-12-17T06:36:54.686Z,100.00
2022-12-17T06:42:15.699Z,100.00
2022-12-17T06:47:38.688Z,100.00
2022-12-17T06:52:59.728Z,100.00
2022-12-17T06:58:20.856Z,100.00
2022-12-17T07:03:43.193Z,100.00
2022-12-17T07:09:04.146Z,100.00
2022-12-17T07:14:25.032Z,100.00
2022-12-17T07:19:47.376Z,100.00
2022-12-17T07:25:08.940Z,100.00
2022-12-17T07:30:30.860Z,100.00
2022-12-17T07:35:53.875Z,100.00
2022-12-17T07:41:15.048Z,100.00
2022-12-17T07:46:36.190Z,100.00
2022-12-17T07:51:58.818Z,100.00
2022-12-17T07:57:19.088Z,100.00
2022-12-17T08:02:40.115Z,99.64
2022-12-17T08:08:02.408Z,99.05
2022-12-17T08:13:24.406Z,98.30
2022-12-17T08:18:50.697Z,97.48
2022-12-17T08:24:13.001Z,96.64
2022-12-17T08:29:34.059Z,96.73
2022-12-17T09:49:16.377Z,92.46
2022-12-17T09:54:43.967Z,92.48
2022-12-17T10:00:04.959Z,91.50
2022-12-17T10:05:40.762Z,93.37
2022-12-17T10:11:03.778Z,92.15
2022-12-17T10:16:43.664Z,91.33
2022-12-17T10:22:11.435Z,92.34
2022-12-17T10:27:39.088Z,92.86
2022-12-17T10:33:00.648Z,93.93
2022-12-17T10:38:39.970Z,94.52
2022-12-17T10:44:02.282Z,94.29
2022-12-17T10:49:28.352Z,94.29
2022-12-17T10:54:51.861Z,94.74
2022-12-17T11:00:13.931Z,94.05
2022-12-17T11:05:59.369Z,94.87
2022-12-17T11:11:29.129Z,94.31
2022-12-17T11:17:01.025Z,93.59
2022-12-17T11:22:26.139Z,93.07
2022-12-17T11:27:54.041Z,92.39
2022-12-17T11:33:26.711Z,91.27
2022-12-17T11:38:54.577Z,91.76
2022-12-17T11:44:26.921Z,92.37
2022-12-17T11:49:58.704Z,94.08
2022-12-17T11:55:31.624Z,94.69
2022-12-17T12:00:58.873Z,94.10
2022-12-17T12:06:22.042Z,94.97
2022-12-17T12:11:53.517Z,95.05
2022-12-17T12:17:39.363Z,95.56
2022-12-17T12:23:10.346Z,95.58
2022-12-17T12:28:42.425Z,95.74
2022-12-17T12:34:10.987Z,96.12
2022-12-17T12:39:38.157Z,96.74
2022-12-17T12:45:05.696Z,96.83
2022-12-17T12:50:36.799Z,96.06
2022-12-17T12:56:04.016Z,98.06
2022-12-17T13:01:25.140Z,98.69
2022-12-17T13:06:45.593Z,99.07
2022-12-17T13:11:50.849Z,98.79
2022-12-17T13:16:56.789Z,99.02
2022-12-17T13:22:14.351Z,100.00
2022-12-17T13:27:31.265Z,100.00
2022-12-17T13:32:43.755Z,100.00
2022-12-17T13:38:06.332Z,100.00
2022-12-17T13:43:17.770Z,100.00
2022-12-17T13:48:24.374Z,100.00
2022-12-17T13:53:37.261Z,100.00
2022-12-17T13:58:41.723Z,99.94
2022-12-17T14:04:07.515Z,99.70
2022-12-17T14:09:21.304Z,99.84
2022-12-17T14:14:31.756Z,100.00
2022-12-17T14:19:35.398Z,100.00
2022-12-17T14:24:40.465Z,100.00
2022-12-17T14:29:48.061Z,100.00
2022-12-17T14:35:00.479Z,100.00
2022-12-17T14:40:07.474Z,100.00
2022-12-17T14:45:37.549Z,100.00
2022-12-17T14:50:41.234Z,100.00
2022-12-17T14:55:57.753Z,100.00
2022-12-17T15:01:08.241Z,100.00
2022-12-17T15:06:14.424Z,100.00
2022-12-17T15:11:21.986Z,100.00
2022-12-17T15:16:25.553Z,100.00
2022-12-17T15:21:29.100Z,100.00
2022-12-17T15:26:34.295Z,100.00
2022-12-17T15:31:37.805Z,100.00
2022-12-17T15:36:41.391Z,100.00
2022-12-17T15:42:03.877Z,100.00
2022-12-17T15:47:07.308Z,100.00
2022-12-17T15:52:10.755Z,100.00
2022-12-17T15:57:18.678Z,100.00
2022-12-17T16:02:23.506Z,100.00
2022-12-17T16:07:27.294Z,100.00
2022-12-17T16:12:32.171Z,100.00
2022-12-17T16:17:36.079Z,100.00
2022-12-17T16:22:39.603Z,100.00
2022-12-17T16:27:44.790Z,100.00
2022-12-17T16:32:48.286Z,100.00
2022-12-17T16:37:51.903Z,100.00
2022-12-17T16:42:57.072Z,100.00
2022-12-17T16:48:00.530Z,100.00
2022-12-17T16:53:04.135Z,100.00
2022-12-17T16:58:09.464Z,100.00
2022-12-17T17:03:13.144Z,100.00
2022-12-17T17:08:17.047Z,100.00
2022-12-17T17:13:22.027Z,100.00
2022-12-17T17:18:25.684Z,100.00
2022-12-17T17:23:29.151Z,100.00
2022-12-17T17:28:34.174Z,100.00
2022-12-17T17:33:40.331Z,100.00
2022-12-17T17:38:43.823Z,100.00
2022-12-17T17:43:49.054Z,100.00
2022-12-17T17:48:56.787Z,100.00
2022-12-17T17:54:02.221Z,100.00
2022-12-17T17:59:08.987Z,100.00
2022-12-17T18:04:14.405Z,100.00
2022-12-17T18:09:17.881Z,100.00
2022-12-17T18:14:22.726Z,100.00
2022-12-17T18:19:26.213Z,100.00
2022-12-17T18:24:29.820Z,100.00
2022-12-17T18:29:34.744Z,100.00
2022-12-17T18:34:39.002Z,100.00
2022-12-17T18:39:42.691Z,100.00
2022-12-17T18:44:47.570Z,100.00
2022-12-17T18:49:51.094Z,100.00
2022-12-17T18:54:54.631Z,100.00
2022-12-17T18:59:59.449Z,100.00
2022-12-17T19:05:02.968Z,100.00
2022-12-17T19:10:07.439Z,100.00
2022-12-17T19:15:12.537Z,100.00
2022-12-17T19:20:16.011Z,100.00
2022-12-17T19:25:19.519Z,100.00
2022-12-17T19:30:24.349Z,100.00
2022-12-17T19:35:28.013Z,100.00
2022-12-17T19:40:31.514Z,100.00
2022-12-17T19:45:36.460Z,100.00
2022-12-17T19:50:39.970Z,100.00
2022-12-17T19:55:43.459Z,100.00
2022-12-17T20:00:53.022Z,100.00
2022-12-17T20:05:57.735Z,100.00
2022-12-17T20:11:02.666Z,100.00
2022-12-17T20:16:08.765Z,100.00
2022-12-17T20:21:16.029Z,100.00
2022-12-17T20:26:19.985Z,100.00
2022-12-17T20:31:27.448Z,100.00
2022-12-17T20:36:31.332Z,100.00
2022-12-17T20:41:36.609Z,100.00
2022-12-17T20:46:42.809Z,100.00
2022-12-17T20:51:46.375Z,100.00
2022-12-17T20:56:50.097Z,100.00
2022-12-17T21:01:56.554Z,100.00
2022-12-17T21:07:00.756Z,100.00
2022-12-17T21:12:04.382Z,100.00
2022-12-17T21:17:14.973Z,100.00
2022-12-17T21:22:18.962Z,100.00
2022-12-17T21:27:23.084Z,100.00
2022-12-17T21:32:33.550Z,100.00
2022-12-17T21:37:37.374Z,100.00
2022-12-17T21:42:58.504Z,100.00
2022-12-17T21:48:03.439Z,100.00
2022-12-17T21:53:12.868Z,100.00
2022-12-17T21:58:16.609Z,100.00
2022-12-17T22:03:22.829Z,100.00
2022-12-17T22:08:26.440Z,100.00
2022-12-17T22:13:47.834Z,100.00
2022-12-17T22:18:53.598Z,100.00
2022-12-17T22:23:57.149Z,100.00
2022-12-17T22:29:01.456Z,100.00
2022-12-17T22:34:52.946Z,100.00
2022-12-17T22:44:12.735Z,100.00
2022-12-17T22:44:56.783Z,100.00
2022-12-17T22:50:05.974Z,100.00
2022-12-17T22:55:10.442Z,100.00
2022-12-17T23:00:17.297Z,100.00
2022-12-17T23:05:22.712Z,100.00
2022-12-17T23:10:28.201Z,100.00
2022-12-17T23:15:36.580Z,100.00
2022-12-17T23:20:41.566Z,99.72
2022-12-17T23:25:44.973Z,99.94
2022-12-17T23:30:48.481Z,100.00
2022-12-17T23:36:03.628Z,99.70
2022-12-17T23:41:09.433Z,99.14
2022-12-17T23:46:13.662Z,98.93
2022-12-17T23:51:21.835Z,99.25
2022-12-17T23:56:27.334Z,100.00
